createdAt,value
2022-12-08T00:01:22.313Z,77.30
2022-12-08T00:03:49.588Z,77.70
2022-12-08T00:06:55.043Z,77.80
2022-12-08T00:09:39.804Z,77.80
2022-12-08T00:12:17.516Z,77.80
2022-12-08T00:14:46.523Z,77.90
2022-12-08T00:17:15.152Z,78.30
2022-12-08T00:19:42.754Z,78.30
2022-12-08T00:22:10.974Z,78.40
2022-12-08T00:24:39.912Z,78.60
2022-12-08T00:27:12.509Z,78.50
2022-12-08T00:29:39.658Z,78.40
2022-12-08T00:32:06.881Z,78.90
2022-12-08T00:34:34.361Z,78.70
2022-12-08T00:37:01.262Z,78.70
2022-12-08T00:39:28.135Z,79.60
2022-12-08T00:42:13.129Z,79.30
2022-12-08T00:44:44.801Z,79.50
2022-12-08T00:47:13.144Z,79.50
2022-12-08T00:49:40.521Z,79.70
2022-12-08T00:52:08.344Z,79.70
2022-12-08T00:54:35.414Z,79.80
2022-12-08T00:57:02.369Z,80.20
2022-12-08T00:59:29.319Z,79.90
2022-12-08T01:01:56.315Z,79.70
2022-12-08T01:04:24.212Z,79.70
2022-12-08T01:06:51.099Z,79.80
2022-12-08T01:09:19.363Z,80.00
2022-12-08T01:11:46.558Z,80.20
2022-12-08T01:14:14.052Z,80.20
2022-12-08T01:16:41.755Z,80.20
2022-12-08T01:19:12.271Z,80.10
2022-12-08T01:21:40.433Z,80.00
2022-12-08T01:24:10.551Z,79.80
2022-12-08T01:26:37.624Z,79.80
2022-12-08T01:29:04.492Z,79.80
2022-12-08T01:31:31.575Z,79.50
2022-12-08T01:33:58.852Z,79.40
2022-12-08T01:36:30.840Z,79.40
2022-12-08T01:38:59.871Z,79.40
2022-12-08T01:41:30.708Z,79.10
2022-12-08T01:44:02.535Z,79.20
2022-12-08T01:46:32.712Z,79.40
2022-12-08T01:49:08.386Z,79.10
2022-12-08T01:51:43.006Z,79.00
2022-12-08T01:54:12.214Z,79.20
2022-12-08T01:56:56.912Z,79.10
2022-12-08T01:59:24.947Z,79.10
2022-12-08T02:01:53.011Z,79.10
2022-12-08T02:04:20.173Z,79.00
2022-12-08T02:06:49.235Z,78.80
2022-12-08T02:09:16.610Z,79.00
2022-12-08T02:11:43.682Z,79.00
2022-12-08T02:17:28.449Z,79.30
2022-12-08T02:20:02.569Z,79.30
2022-12-08T02:23:00.314Z,79.50
2022-12-08T02:25:39.150Z,79.60
2022-12-08T02:28:33.847Z,79.80
2022-12-08T02:31:49.199Z,79.90
2022-12-08T02:34:48.233Z,80.00
2022-12-08T02:37:28.443Z,79.80
2022-12-08T02:40:20.069Z,80.10
2022-12-08T02:43:14.286Z,80.30
2022-12-08T02:45:51.360Z,80.40
2022-12-08T02:48:18.429Z,80.50
2022-12-08T02:50:45.381Z,80.40
2022-12-08T02:56:03.170Z,80.90
2022-12-08T02:59:01.641Z,81.20
2022-12-08T03:01:49.774Z,81.10
2022-12-08T03:04:23.011Z,81.00
2022-12-08T03:07:04.886Z,81.40
2022-12-08T03:09:56.777Z,81.50
2022-12-08T03:12:34.311Z,82.10
2022-12-08T03:15:09.820Z,82.50
2022-12-08T03:17:39.299Z,82.50
2022-12-08T03:20:10.419Z,82.30
2022-12-08T03:22:39.489Z,82.50
2022-12-08T03:25:07.775Z,82.70
2022-12-08T03:27:34.841Z,82.90
2022-12-08T03:30:03.231Z,83.00
2022-12-08T03:32:39.489Z,82.90
2022-12-08T03:35:11.332Z,83.10
2022-12-08T03:37:40.196Z,82.70
2022-12-08T03:40:09.764Z,82.60
2022-12-08T03:42:36.687Z,82.70
2022-12-08T03:45:05.451Z,82.60
2022-12-08T03:47:32.309Z,82.60
2022-12-08T03:49:59.110Z,82.70
2022-12-08T03:52:25.974Z,82.70
2022-12-08T03:54:53.059Z,82.90
2022-12-08T03:57:19.967Z,82.50
2022-12-08T03:59:47.022Z,82.10
2022-12-08T04:02:14.036Z,81.80
2022-12-08T04:04:41.853Z,81.50
2022-12-08T04:07:09.016Z,81.70
2022-12-08T04:09:36.191Z,81.70
2022-12-08T04:12:03.383Z,81.60
2022-12-08T04:14:30.500Z,81.80
2022-12-08T04:16:58.362Z,82.00
2022-12-08T04:19:25.338Z,81.80
2022-12-08T04:21:53.159Z,81.70
2022-12-08T04:24:20.008Z,81.80
2022-12-08T04:26:46.979Z,81.90
2022-12-08T04:29:13.886Z,82.00
2022-12-08T04:31:41.464Z,82.20
2022-12-08T04:34:09.186Z,82.20
2022-12-08T04:36:36.198Z,82.80
2022-12-08T04:39:03.985Z,82.50
2022-12-08T04:41:30.830Z,82.70
2022-12-08T04:43:58.010Z,82.60
2022-12-08T04:46:25.047Z,82.30
2022-12-08T04:48:51.970Z,82.00
2022-12-08T04:51:19.938Z,82.10
2022-12-08T04:53:47.633Z,82.50
2022-12-08T04:56:19.595Z,82.40
2022-12-08T04:58:48.290Z,82.20
2022-12-08T05:01:15.549Z,82.30
2022-12-08T05:03:42.713Z,82.70
2022-12-08T05:06:12.990Z,82.70
2022-12-08T05:08:41.956Z,82.30
2022-12-08T05:11:10.635Z,82.70
2022-12-08T05:13:37.815Z,82.90
2022-12-08T05:16:14.646Z,83.90
2022-12-08T05:18:43.350Z,83.20
2022-12-08T05:21:10.812Z,82.70
2022-12-08T05:23:37.853Z,82.90
2022-12-08T05:26:06.715Z,82.30
2022-12-08T05:28:43.038Z,82.50
2022-12-08T05:31:12.221Z,82.80
2022-12-08T05:33:39.282Z,82.70
2022-12-08T05:36:06.725Z,82.80
2022-12-08T05:38:34.100Z,82.90
2022-12-08T05:41:01.112Z,82.90
2022-12-08T05:43:28.081Z,82.90
2022-12-08T05:45:55.099Z,83.20
2022-12-08T05:48:21.933Z,83.20
2022-12-08T05:50:49.985Z,83.30
2022-12-08T05:53:18.231Z,83.10
2022-12-08T05:55:45.562Z,83.10
2022-12-08T05:58:17.790Z,82.80
2022-12-08T06:00:45.504Z,82.70
2022-12-08T06:03:13.987Z,82.60
2022-12-08T06:05:43.871Z,82.60
2022-12-08T06:08:11.142Z,82.70
2022-12-08T06:10:39.609Z,82.90
2022-12-08T06:13:06.598Z,83.10
2022-12-08T06:15:38.515Z,83.30
2022-12-08T06:18:05.867Z,83.60
2022-12-08T06:20:33.944Z,83.60
2022-12-08T06:23:00.961Z,83.80
2022-12-08T06:25:27.832Z,84.80
2022-12-08T06:27:54.712Z,84.20
2022-12-08T06:30:21.625Z,84.30
2022-12-08T06:32:49.024Z,84.30
2022-12-08T06:35:16.570Z,84.40
2022-12-08T06:37:43.785Z,84.40
2022-12-08T06:40:14.250Z,84.50
2022-12-08T06:42:44.732Z,85.00
2022-12-08T06:45:13.606Z,86.10
2022-12-08T06:47:41.080Z,85.40
2022-12-08T06:50:08.911Z,85.20
2022-12-08T06:52:43.202Z,85.20
2022-12-08T06:55:35.507Z,85.20
2022-12-08T06:58:02.358Z,84.60
2022-12-08T07:00:29.471Z,84.00
2022-12-08T07:02:56.596Z,84.40
2022-12-08T07:05:23.576Z,84.60
2022-12-08T07:07:50.525Z,84.40
2022-12-08T07:10:17.633Z,84.80
2022-12-08T07:12:45.022Z,84.10
2022-12-08T07:15:12.019Z,83.10
2022-12-08T07:17:38.903Z,83.30
2022-12-08T07:20:06.880Z,83.60
2022-12-08T07:22:34.127Z,83.70
2022-12-08T07:25:01.328Z,84.20
2022-12-08T07:27:28.569Z,84.20
2022-12-08T07:29:55.397Z,84.70
2022-12-08T07:32:22.284Z,85.00
2022-12-08T07:34:49.217Z,84.90
2022-12-08T07:37:16.588Z,84.60
2022-12-08T07:39:43.469Z,84.80
2022-12-08T07:42:10.346Z,84.70
2022-12-08T07:44:37.904Z,84.30
2022-12-08T07:47:05.103Z,84.40
2022-12-08T07:49:32.009Z,84.40
2022-12-08T07:51:58.827Z,84.50
2022-12-08T07:54:25.803Z,84.80
2022-12-08T07:56:52.682Z,85.10
2022-12-08T07:59:19.663Z,84.90
2022-12-08T08:02:06.318Z,84.80
2022-12-08T08:04:36.257Z,84.10
2022-12-08T08:07:03.241Z,84.40
2022-12-08T08:09:30.062Z,84.20
2022-12-08T08:12:22.677Z,84.30
2022-12-08T08:14:44.122Z,84.30
2022-12-08T08:17:11.170Z,84.10
2022-12-08T08:19:38.333Z,84.00
2022-12-08T08:22:06.116Z,84.00
2022-12-08T08:24:33.084Z,83.50
2022-12-08T08:27:02.878Z,83.30
2022-12-08T08:29:29.732Z,83.80
2022-12-08T08:31:56.638Z,83.90
2022-12-08T08:34:23.417Z,83.80
2022-12-08T08:36:50.299Z,83.90
2022-12-08T08:39:17.207Z,84.10
2022-12-08T08:41:44.548Z,83.80
2022-12-08T08:44:14.365Z,83.80
2022-12-08T08:46:41.501Z,83.70
2022-12-08T08:49:08.554Z,83.50
2022-12-08T08:51:35.489Z,83.90
2022-12-08T08:54:02.329Z,84.30
2022-12-08T08:56:29.157Z,84.40
2022-12-08T08:58:56.101Z,84.60
2022-12-08T09:01:25.846Z,84.60
2022-12-08T09:03:52.817Z,84.60
2022-12-08T09:06:20.603Z,84.70
2022-12-08T09:08:48.154Z,84.80
2022-12-08T09:11:15.966Z,84.30
2022-12-08T09:13:42.829Z,84.30
2022-12-08T09:16:11.432Z,84.60
2022-12-08T09:18:39.082Z,84.60
2022-12-08T09:21:08.937Z,84.50
2022-12-08T09:23:36.071Z,84.10
2022-12-08T09:26:05.042Z,84.10
2022-12-08T09:28:32.598Z,84.10
2022-12-08T09:30:59.907Z,84.10
2022-12-08T09:33:27.032Z,84.50
2022-12-08T09:35:53.939Z,84.80
2022-12-08T09:38:20.817Z,84.80
2022-12-08T09:40:53.346Z,84.50
2022-12-08T09:43:39.630Z,83.70
2022-12-08T09:46:09.890Z,83.60
2022-12-08T09:48:43.111Z,83.10
2022-12-08T09:51:11.555Z,83.60
2022-12-08T09:53:48.419Z,83.40
2022-12-08T09:56:30.845Z,83.40
2022-12-08T09:59:34.966Z,83.50
2022-12-08T10:02:03.815Z,83.80
2022-12-08T10:04:39.206Z,84.00
2022-12-08T10:07:44.389Z,84.50
2022-12-08T10:10:17.523Z,84.00
2022-12-08T10:13:09.867Z,83.10
2022-12-08T10:15:41.031Z,83.20
2022-12-08T10:18:25.074Z,83.40
2022-12-08T10:20:52.845Z,83.50
2022-12-08T10:23:29.781Z,84.00
2022-12-08T10:26:06.603Z,83.70
2022-12-08T10:28:36.002Z,83.50
2022-12-08T10:31:05.887Z,83.00
2022-12-08T10:33:34.027Z,82.90
2022-12-08T10:36:04.926Z,83.40
2022-12-08T10:38:35.554Z,83.70
2022-12-08T10:41:05.575Z,83.40
2022-12-08T10:43:33.573Z,83.60
2022-12-08T10:46:30.296Z,83.70
2022-12-08T10:49:11.984Z,83.60
2022-12-08T10:51:41.238Z,83.20
2022-12-08T10:54:33.010Z,83.20
2022-12-08T10:57:00.247Z,82.70
2022-12-08T10:59:27.720Z,82.20
2022-12-08T11:01:57.158Z,82.10
2022-12-08T11:04:30.326Z,82.30
2022-12-08T11:06:57.591Z,82.30
2022-12-08T11:09:36.314Z,82.70
2022-12-08T11:12:18.009Z,83.10
2022-12-08T11:14:49.363Z,82.90
2022-12-08T11:17:22.245Z,82.60
2022-12-08T11:20:09.836Z,82.90
2022-12-08T11:23:01.275Z,83.20
2022-12-08T11:25:28.478Z,82.30
2022-12-08T11:28:01.360Z,82.40
2022-12-08T11:30:45.509Z,82.30
2022-12-08T11:33:15.881Z,82.20
2022-12-08T11:35:47.617Z,82.10
2022-12-08T11:38:24.710Z,82.70
2022-12-08T11:41:15.762Z,82.80
2022-12-08T11:44:04.555Z,82.80
2022-12-08T11:46:39.460Z,83.00
2022-12-08T11:49:11.735Z,83.30
2022-12-08T11:52:04.043Z,82.90
2022-12-08T11:54:36.721Z,82.60
2022-12-08T11:57:08.703Z,83.00
2022-12-08T11:59:41.736Z,83.10
2022-12-08T12:02:28.997Z,82.60
2022-12-08T12:05:10.954Z,82.30
2022-12-08T12:07:53.797Z,82.30
2022-12-08T12:10:45.891Z,82.60
2022-12-08T12:13:24.325Z,82.80
2022-12-08T12:16:03.496Z,82.70
2022-12-08T12:18:33.200Z,82.70
2022-12-08T12:21:21.782Z,82.60
2022-12-08T12:23:53.490Z,82.40
2022-12-08T12:26:29.431Z,81.90
2022-12-08T12:28:56.245Z,81.60
2022-12-08T12:31:32.079Z,81.80
2022-12-08T12:34:20.849Z,81.50
2022-12-08T12:36:50.937Z,81.40
2022-12-08T12:39:21.763Z,81.60
2022-12-08T12:41:53.862Z,81.80
2022-12-08T12:44:25.591Z,81.70
2022-12-08T12:46:54.671Z,81.00
2022-12-08T12:49:40.946Z,81.00
2022-12-08T12:52:20.082Z,81.00
2022-12-08T12:54:50.049Z,80.60
2022-12-08T12:57:22.291Z,80.40
2022-12-08T12:59:56.192Z,80.60
2022-12-08T13:02:32.398Z,80.20
2022-12-08T13:05:10.445Z,80.30
2022-12-08T13:08:00.488Z,80.00
2022-12-08T13:10:40.999Z,80.10
2022-12-08T13:13:23.518Z,80.40
2022-12-08T13:16:10.011Z,80.60
2022-12-08T13:18:52.268Z,80.70
2022-12-08T13:21:22.688Z,80.90
2022-12-08T13:24:17.806Z,80.60
2022-12-08T13:26:46.150Z,80.60
2022-12-08T13:29:25.702Z,80.40
2022-12-08T13:32:01.646Z,80.40
2022-12-08T13:34:42.371Z,80.50
2022-12-08T13:37:12.157Z,80.50
2022-12-08T13:39:39.085Z,80.40
2022-12-08T13:42:12.216Z,79.90
2022-12-08T13:45:21.308Z,80.10
2022-12-08T13:48:25.619Z,80.20
2022-12-08T13:57:05.588Z,79.70
2022-12-08T13:59:35.896Z,79.40
2022-12-08T14:02:25.143Z,79.60
2022-12-08T14:05:17.306Z,79.50
2022-12-08T14:07:43.771Z,79.50
2022-12-08T14:10:27.392Z,79.60
2022-12-08T14:13:13.965Z,79.20
2022-12-08T14:15:41.062Z,79.00
2022-12-08T14:18:29.421Z,79.40
2022-12-08T14:21:22.409Z,79.80
2022-12-08T14:23:49.819Z,80.10
2022-12-08T14:26:18.039Z,80.30
2022-12-08T14:28:45.426Z,80.40
2022-12-08T14:31:15.007Z,80.90
2022-12-08T14:33:43.040Z,80.00
2022-12-08T14:36:10.945Z,80.10
2022-12-08T14:38:38.439Z,80.20
2022-12-08T14:41:11.282Z,80.10
2022-12-08T14:43:41.241Z,80.10
2022-12-08T14:46:23.475Z,80.20
2022-12-08T14:48:56.095Z,80.40
2022-12-08T14:51:29.304Z,80.60
2022-12-08T14:54:12.537Z,80.60
2022-12-08T14:57:02.046Z,80.80
2022-12-08T14:59:31.262Z,81.00
2022-12-08T15:02:16.644Z,81.20
2022-12-08T15:04:47.626Z,81.30
2022-12-08T15:07:21.879Z,81.40
2022-12-08T15:10:07.354Z,81.60
2022-12-08T15:12:35.057Z,81.70
2022-12-08T15:15:19.318Z,81.90
2022-12-08T15:17:51.805Z,82.10
2022-12-08T15:20:27.556Z,82.10
2022-12-08T15:22:59.081Z,82.10
2022-12-08T15:25:26.510Z,82.40
2022-12-08T15:27:53.585Z,82.70
2022-12-08T15:30:21.041Z,82.80
2022-12-08T15:32:52.709Z,82.90
2022-12-08T15:35:20.132Z,82.50
2022-12-08T15:37:47.518Z,82.80
2022-12-08T15:40:23.109Z,83.00
2022-12-08T15:42:50.145Z,83.00
2022-12-08T15:45:18.089Z,83.20
2022-12-08T15:47:47.441Z,83.20
2022-12-08T15:50:18.585Z,83.20
2022-12-08T15:52:45.627Z,83.20
2022-12-08T15:55:19.652Z,83.50
2022-12-08T15:58:45.020Z,83.50
2022-12-08T16:00:54.464Z,83.60
2022-12-08T16:09:16.470Z,83.90
2022-12-08T16:12:07.725Z,84.10
2022-12-08T16:17:24.068Z,84.20
2022-12-08T16:19:51.291Z,84.40
2022-12-08T16:25:24.890Z,84.40
2022-12-08T16:28:17.253Z,84.70
2022-12-08T16:30:42.378Z,84.80
2022-12-08T16:33:12.111Z,84.60
2022-12-08T16:35:39.102Z,84.90
2022-12-08T16:38:05.984Z,84.70
2022-12-08T16:40:33.143Z,84.70
2022-12-08T16:42:59.984Z,84.80
2022-12-08T16:45:30.545Z,84.90
2022-12-08T16:48:00.330Z,85.10
2022-12-08T16:50:34.073Z,85.10
2022-12-08T16:53:12.236Z,84.90
2022-12-08T16:55:40.896Z,85.10
2022-12-08T16:58:07.773Z,84.90
2022-12-08T17:00:37.585Z,85.20
2022-12-08T17:03:08.070Z,85.20
2022-12-08T17:05:35.308Z,85.40
2022-12-08T17:08:02.539Z,85.50
2022-12-08T17:10:34.471Z,85.60
2022-12-08T17:13:02.515Z,85.60
2022-12-08T17:15:29.690Z,85.60
2022-12-08T17:17:59.444Z,85.40
2022-12-08T17:20:27.671Z,85.50
2022-12-08T17:22:56.450Z,85.60
2022-12-08T17:25:23.937Z,85.60
2022-12-08T17:27:51.177Z,85.60
2022-12-08T17:30:19.043Z,85.80
2022-12-08T17:32:46.759Z,85.80
2022-12-08T17:35:14.355Z,85.80
2022-12-08T17:37:42.629Z,85.90
2022-12-08T17:40:10.735Z,86.10
2022-12-08T17:42:38.701Z,86.00
2022-12-08T17:45:07.754Z,86.00
2022-12-08T17:47:35.131Z,86.00
2022-12-08T17:50:08.551Z,86.80
2022-12-08T17:52:37.225Z,86.10
2022-12-08T17:55:04.631Z,86.20
2022-12-08T17:57:34.299Z,86.30
2022-12-08T18:00:02.241Z,86.40
2022-12-08T18:02:38.988Z,86.60
2022-12-08T18:05:06.542Z,86.50
2022-12-08T18:07:33.393Z,86.60
2022-12-08T18:10:00.370Z,86.80
2022-12-08T18:12:27.366Z,86.50
2022-12-08T18:14:54.262Z,86.80
2022-12-08T18:17:22.120Z,86.70
2022-12-08T18:19:49.924Z,86.80
2022-12-08T18:22:17.259Z,86.90
2022-12-08T18:24:44.509Z,86.80
2022-12-08T18:27:12.199Z,86.90
2022-12-08T18:29:39.969Z,87.10
2022-12-08T18:32:07.189Z,87.10
2022-12-08T18:34:34.640Z,87.10
2022-12-08T18:37:01.992Z,87.00
2022-12-08T18:39:32.027Z,86.80
2022-12-08T18:42:02.393Z,86.90
2022-12-08T18:44:30.251Z,87.00
2022-12-08T18:46:57.140Z,87.10
2022-12-08T18:49:38.304Z,87.10
2022-12-08T18:52:06.027Z,87.40
2022-12-08T18:54:58.073Z,87.40
2022-12-08T18:57:21.139Z,87.50
2022-12-08T18:59:48.387Z,88.20
2022-12-08T19:02:16.266Z,87.90
2022-12-08T19:04:44.027Z,87.90
2022-12-08T19:07:15.845Z,87.80
2022-12-08T19:09:46.925Z,87.70
2022-12-08T19:12:14.781Z,87.70
2022-12-08T19:14:41.958Z,87.50
2022-12-08T19:17:10.978Z,87.40
2022-12-08T19:19:44.411Z,87.50
2022-12-08T19:22:12.478Z,87.60
2022-12-08T19:24:44.486Z,87.60
2022-12-08T19:27:14.504Z,87.60
2022-12-08T19:29:42.072Z,87.60
2022-12-08T19:32:09.479Z,87.70
2022-12-08T19:34:36.905Z,87.70
2022-12-08T19:37:04.352Z,87.60
2022-12-08T19:39:53.052Z,87.70
2022-12-08T19:42:41.711Z,87.60
2022-12-08T19:45:22.153Z,87.70
2022-12-08T19:47:52.966Z,87.60
2022-12-08T19:53:13.404Z,87.90
2022-12-08T19:55:42.365Z,87.70
2022-12-08T19:58:11.294Z,87.70
2022-12-08T20:00:39.854Z,87.80
2022-12-08T20:03:14.500Z,88.00
2022-12-08T20:05:43.521Z,88.10
2022-12-08T20:08:11.945Z,88.30
2022-12-08T20:10:41.859Z,88.40
2022-12-08T20:13:29.192Z,89.10
2022-12-08T20:15:57.424Z,88.40
2022-12-08T20:18:25.445Z,88.30
2022-12-08T20:20:53.850Z,88.60
2022-12-08T20:23:24.279Z,88.60
2022-12-08T20:25:58.703Z,88.40
2022-12-08T20:28:26.386Z,88.20
2022-12-08T20:30:58.133Z,88.20
2022-12-08T20:33:25.708Z,88.30
2022-12-08T20:36:05.303Z,88.40
2022-12-08T20:38:32.583Z,88.30
2022-12-08T20:41:00.096Z,88.40
2022-12-08T20:43:28.668Z,88.60
2022-12-08T20:45:55.729Z,88.70
2022-12-08T20:48:23.044Z,88.70
2022-12-08T20:50:51.778Z,88.40
2022-12-08T20:53:18.697Z,87.90
2022-12-08T20:55:46.888Z,88.40
2022-12-08T20:58:18.040Z,88.50
2022-12-08T21:00:45.062Z,88.60
2022-12-08T21:03:13.758Z,88.70
2022-12-08T21:05:41.175Z,88.70
2022-12-08T21:08:09.244Z,88.60
2022-12-08T21:10:42.218Z,88.30
2022-12-08T21:13:10.653Z,88.30
2022-12-08T21:15:37.923Z,88.50
2022-12-08T21:18:05.810Z,89.60
2022-12-08T21:20:32.773Z,88.70
2022-12-08T21:22:59.688Z,88.60
2022-12-08T21:25:26.974Z,88.50
2022-12-08T21:27:54.073Z,88.70
2022-12-08T21:30:21.226Z,88.80
2022-12-08T21:32:48.167Z,88.40
2022-12-08T21:35:15.225Z,88.40
2022-12-08T21:37:42.025Z,88.20
2022-12-08T21:40:09.491Z,88.30
2022-12-08T21:42:45.665Z,88.30
2022-12-08T21:45:16.199Z,88.80
2022-12-08T21:47:45.329Z,88.40
2022-12-08T21:50:13.376Z,88.50
2022-12-08T21:52:41.821Z,88.50
2022-12-08T21:55:12.541Z,88.40
2022-12-08T21:57:40.644Z,88.40
2022-12-08T22:00:10.677Z,88.20
2022-12-08T22:02:38.327Z,88.30
2022-12-08T22:05:05.742Z,88.20
2022-12-08T22:07:32.735Z,88.40
2022-12-08T22:10:00.322Z,88.40
2022-12-08T22:12:27.497Z,88.30
2022-12-08T22:14:55.386Z,88.50
2022-12-08T22:17:22.361Z,88.50
2022-12-08T22:19:49.388Z,88.30
2022-12-08T22:22:16.216Z,88.10
2022-12-08T22:24:43.281Z,88.20
2022-12-08T22:27:10.128Z,88.20
2022-12-08T22:29:36.940Z,88.40
2022-12-08T22:32:04.406Z,87.90
2022-12-08T22:34:31.293Z,87.90
2022-12-08T22:36:58.186Z,88.00
2022-12-08T22:39:25.143Z,88.60
2022-12-08T22:41:52.592Z,88.80
2022-12-08T22:44:19.519Z,88.10
2022-12-08T22:46:46.629Z,88.00
2022-12-08T22:49:13.561Z,88.00
2022-12-08T22:51:40.396Z,88.00
2022-12-08T22:54:13.025Z,88.10
2022-12-08T22:56:39.929Z,87.90
2022-12-08T22:59:07.064Z,88.00
2022-12-08T23:01:35.045Z,88.20
2022-12-08T23:04:02.348Z,88.10
2022-12-08T23:06:30.342Z,88.00
2022-12-08T23:08:57.949Z,88.50
2022-12-08T23:11:28.683Z,88.30
2022-12-08T23:14:00.391Z,88.20
2022-12-08T23:16:27.719Z,88.20
2022-12-08T23:18:55.517Z,89.20
2022-12-08T23:21:22.484Z,88.50
2022-12-08T23:23:49.545Z,88.80
2022-12-08T23:26:22.377Z,88.80
2022-12-08T23:28:50.107Z,88.90
2022-12-08T23:31:18.469Z,89.10
2022-12-08T23:33:46.575Z,89.20
2022-12-08T23:36:15.515Z,89.20
2022-12-08T23:38:42.747Z,89.30
2022-12-08T23:41:13.574Z,89.70
2022-12-08T23:43:58.968Z,89.50
2022-12-08T23:46:27.376Z,89.50
2022-12-08T23:48:54.268Z,89.40
2022-12-08T23:51:21.321Z,89.70
2022-12-08T23:53:48.258Z,89.70
2022-12-08T23:56:17.423Z,89.70
2022-12-08T23:58:45.529Z,89.60
